Time;durP1;ratioP1;P1;durP2;ratioP2;P2;SDS_P1;SDS_P2;PMS_P1;PMS_P2;Temp;Humidity;BMP_temperature;BMP_pressure;BME280_temperature;BME280_humidity;BME280_pressure;Samples;Min_cycle;Max_cycle;Signal;HPM_P1;HPM_P2
2023/09/14 04:12:50;;;;;;;6.25;4.62;;;;;;;22.75;75.49;100279.75;5617305;31;78723;-56
2023/09/14 04:15:53;;;;;;;6.70;5.10;;;;;;;22.75;75.49;100279.75;5603569;31;34080;-56
2023/09/14 04:19:00;;;;;;;5.12;3.75;;;;;;;22.23;74.55;100272.94;5603680;31;33731;-57
2023/09/14 04:22:05;;;;;;;6.30;4.32;;;;;;;22.21;73.63;100276.03;5603296;31;33139;-57
2023/09/14 04:25:07;;;;;;;5.28;3.87;;;;;;;22.31;73.66;100277.37;5583985;31;33728;-57
2023/09/14 04:28:14;;;;;;;6.12;3.92;;;;;;;22.35;73.17;100280.16;5583616;31;33131;-57
2023/09/14 04:31:16;;;;;;;5.97;4.57;;;;;;;22.34;72.83;100278.59;5584873;31;33281;-57
2023/09/14 04:34:19;;;;;;;7.12;4.93;;;;;;;22.50;75.70;100282.03;5603481;31;33125;-58
2023/09/14 04:37:22;;;;;;;5.22;3.87;;;;;;;22.50;76.87;100282.81;5583719;31;33226;-57
2023/09/14 04:40:24;;;;;;;7.37;4.87;;;;;;;22.46;71.76;100272.97;5583617;31;33199;-58
2023/09/14 04:43:28;;;;;;;5.93;4.28;;;;;;;22.54;76.01;100276.62;5581918;31;33634;-57
2023/09/14 04:46:32;;;;;;;5.95;4.35;;;;;;;22.56;74.98;100286.03;5580715;31;33766;-57
2023/09/14 04:49:34;;;;;;;6.30;4.70;;;;;;;22.54;72.18;100291.06;5583688;31;33567;-57
2023/09/14 04:52:37;;;;;;;6.12;4.43;;;;;;;22.38;73.44;100285.69;5583453;32;33676;-57
2023/09/14 04:55:39;;;;;;;5.68;4.43;;;;;;;22.34;73.31;100281.34;5582929;31;33193;-57
2023/09/14 04:58:42;;;;;;;7.87;4.57;;;;;;;22.30;74.00;100289.47;5581431;31;34400;-58
2023/09/14 05:01:44;;;;;;;8.45;5.10;;;;;;;22.32;74.09;100291.81;5583194;31;33689;-58
2023/09/14 05:04:47;;;;;;;13.15;5.00;;;;;;;22.33;74.23;100296.16;5583245;31;34352;-57
2023/09/14 05:07:49;;;;;;;7.60;5.05;;;;;;;22.27;74.25;100292.91;5583021;32;33358;-58
2023/09/14 05:10:52;;;;;;;5.18;4.40;;;;;;;22.23;74.17;100295.56;5579342;31;33417;-58
2023/09/14 05:13:54;;;;;;;8.90;4.57;;;;;;;22.24;73.90;100296.38;5563905;32;33453;-58
2023/09/14 05:16:57;;;;;;;5.68;4.18;;;;;;;22.22;74.58;100304.94;5563624;32;33365;-56
2023/09/14 05:19:59;;;;;;;5.90;4.28;;;;;;;22.19;73.78;100307.59;5574795;32;33431;-57
2023/09/14 05:23:03;;;;;;;5.57;3.97;;;;;;;22.19;74.78;100305.66;5574508;32;34382;-57
2023/09/14 05:26:06;;;;;;;6.07;4.20;;;;;;;22.26;73.97;100311.25;5570050;31;33488;-57
2023/09/14 05:29:09;;;;;;;6.40;4.43;;;;;;;22.31;73.74;100314.81;5565745;31;33987;-57
2023/09/14 05:32:11;;;;;;;7.70;4.75;;;;;;;22.26;74.72;100313.19;5569577;31;34522;-57
2023/09/14 05:35:14;;;;;;;7.12;3.97;;;;;;;22.25;74.72;100323.31;5569265;31;33658;-58
2023/09/14 05:38:16;;;;;;;6.55;4.15;;;;;;;22.20;75.11;100322.81;5569247;32;33600;-58
2023/09/14 05:41:19;;;;;;;6.03;4.30;;;;;;;22.12;75.05;100313.69;5569774;32;33560;-57
2023/09/14 05:44:21;;;;;;;11.95;4.37;;;;;;;22.11;74.75;100314.81;5569690;32;33700;-57
2023/09/14 05:47:24;;;;;;;10.55;4.40;;;;;;;22.19;75.15;100318.50;5569928;32;33709;-57
2023/09/14 05:50:28;;;;;;;11.50;4.82;;;;;;;22.15;74.61;100312.13;5569477;32;32094;-57
2023/09/14 05:53:31;;;;;;;7.87;4.32;;;;;;;22.15;74.55;100317.59;5568437;32;33688;-57
2023/09/14 05:56:33;;;;;;;7.57;4.80;;;;;;;22.19;74.12;100334.91;5558970;31;33398;-57
2023/09/14 05:59:38;;;;;;;9.50;4.80;;;;;;;22.26;76.12;100316.72;5557893;31;33640;-57
2023/09/14 06:02:41;;;;;;;7.43;4.47;;;;;;;22.35;73.59;100330.16;5559652;32;31943;-58
2023/09/14 06:05:44;;;;;;;7.37;5.47;;;;;;;22.42;74.98;100329.50;5569464;31;33384;-58
2023/09/14 06:08:46;;;;;;;6.87;5.62;;;;;;;22.61;84.36;100339.56;5568803;32;33279;-57
2023/09/14 06:11:50;;;;;;;9.15;5.00;;;;;;;22.74;83.85;100341.00;5567116;31;33516;-57
2023/09/14 06:14:52;;;;;;;7.90;5.28;;;;;;;22.70;80.34;100343.66;5569653;32;34265;-57
2023/09/14 06:17:54;;;;;;;9.52;4.87;;;;;;;22.68;81.32;100342.44;5567991;32;34335;-57
2023/09/14 06:20:57;;;;;;;10.23;4.85;;;;;;;22.61;80.44;100343.09;5568689;32;33843;-57
2023/09/14 06:24:00;;;;;;;7.68;4.40;;;;;;;22.46;76.68;100352.19;5560519;32;33587;-57
2023/09/14 06:27:02;;;;;;;10.77;4.78;;;;;;;22.41;77.06;100353.25;5558873;32;34089;-58
2023/09/14 06:30:06;;;;;;;14.15;5.72;;;;;;;22.51;82.74;100360.09;5568300;32;33803;-56
2023/09/14 06:33:08;;;;;;;7.28;4.97;;;;;;;22.57;80.45;100361.38;5568522;32;33575;-57
2023/09/14 06:36:10;;;;;;;8.40;5.00;;;;;;;22.57;77.36;100360.59;5567795;31;33614;-57
2023/09/14 06:39:13;;;;;;;29.87;7.10;;;;;;;22.47;75.69;100360.00;5569043;32;33704;-58
2023/09/14 06:42:18;;;;;;;7.57;5.35;;;;;;;22.52;76.41;100364.41;5561757;32;33366;-58
2023/09/14 06:45:20;;;;;;;8.38;5.35;;;;;;;22.58;76.45;100360.22;5569026;32;33773;-57
2023/09/14 06:48:23;;;;;;;8.90;5.00;;;;;;;22.63;77.52;100356.41;5569099;32;33958;-57
2023/09/14 06:51:25;;;;;;;8.60;5.75;;;;;;;22.64;77.16;100352.53;5567035;32;34373;-57
2023/09/14 06:54:28;;;;;;;6.85;5.15;;;;;;;22.68;77.63;100361.56;5553452;32;33544;-57
2023/09/14 06:57:30;;;;;;;12.13;4.93;;;;;;;22.71;76.67;100361.66;5557810;32;34309;-57
2023/09/14 07:00:33;;;;;;;8.05;5.00;;;;;;;22.75;76.46;100361.72;5562192;32;36211;-57
2023/09/14 07:03:35;;;;;;;8.38;5.57;;;;;;;22.83;75.67;100374.34;5561977;32;34251;-57
2023/09/14 07:06:40;;;;;;;6.12;5.20;;;;;;;22.92;73.42;100374.12;5564491;32;34355;-57
2023/09/14 07:09:42;;;;;;;7.65;5.37;;;;;;;22.92;76.59;100374.91;5568539;32;34244;-57
2023/09/14 07:12:45;;;;;;;7.62;5.12;;;;;;;22.94;74.61;100372.59;5567820;32;34512;-57
2023/09/14 07:15:47;;;;;;;8.20;5.07;;;;;;;23.02;75.21;100380.97;5566760;32;33652;-56
2023/09/14 07:18:51;;;;;;;9.82;5.18;;;;;;;23.04;74.93;100390.34;5559914;32;33519;-57
2023/09/14 07:21:54;;;;;;;9.13;5.40;;;;;;;23.13;75.10;100390.91;5561166;32;33390;-58
2023/09/14 07:24:59;;;;;;;8.95;5.05;;;;;;;23.17;74.87;100391.75;5560631;32;34044;-57
2023/09/14 07:28:02;;;;;;;8.25;5.18;;;;;;;23.27;72.77;100387.62;5565223;32;33274;-57
2023/09/14 07:31:06;;;;;;;8.40;5.62;;;;;;;23.35;71.73;100386.59;5564926;32;33622;-57
2023/09/14 07:34:08;;;;;;;6.68;4.97;;;;;;;23.35;72.91;100391.28;5564926;32;33566;-57
2023/09/14 07:37:11;;;;;;;6.47;5.07;;;;;;;23.34;71.57;100395.94;5564937;32;33649;-58
2023/09/14 07:40:13;;;;;;;6.87;5.28;;;;;;;23.39;71.47;100400.31;5564752;32;34305;-57
2023/09/14 07:43:16;;;;;;;8.40;5.60;;;;;;;23.52;75.23;100412.66;5564509;32;33669;-57
2023/09/14 07:46:18;;;;;;;8.38;5.03;;;;;;;23.47;71.75;100409.44;5548986;32;33614;-57
2023/09/14 07:49:21;;;;;;;10.52;5.50;;;;;;;23.52;74.28;100418.12;5561611;32;33420;-56
2023/09/14 07:52:23;;;;;;;8.35;5.72;;;;;;;23.45;72.49;100424.28;5556742;32;32077;-57
2023/09/14 07:55:25;;;;;;;6.62;5.62;;;;;;;23.39;72.17;100431.19;5559051;32;33624;-57
2023/09/14 07:58:28;;;;;;;8.30;5.70;;;;;;;23.33;74.07;100429.12;5565974;32;34383;-57
2023/09/14 08:01:31;;;;;;;6.62;5.55;;;;;;;23.25;74.64;100433.72;5563015;32;33616;-59
2023/09/14 08:04:34;;;;;;;8.98;5.82;;;;;;;23.24;74.02;100432.09;5556911;32;33552;-57
2023/09/14 08:07:37;;;;;;;8.00;5.62;;;;;;;23.19;74.10;100440.63;5560124;32;33641;-57
2023/09/14 08:10:49;;;;;;;11.00;6.65;;;;;;;23.16;74.18;100446.81;5562038;32;34325;-57
2023/09/14 08:13:51;;;;;;;10.02;7.12;;;;;;;23.00;73.89;100446.13;5566992;32;34475;-57
2023/09/14 08:16:53;;;;;;;11.35;7.20;;;;;;;22.93;74.13;100452.25;5558410;32;34247;-57
2023/09/14 08:19:57;;;;;;;9.07;7.80;;;;;;;22.91;74.74;100460.00;5561127;32;33630;-57
2023/09/14 08:23:00;;;;;;;9.48;6.90;;;;;;;22.92;75.68;100459.66;5559060;32;33852;-57
2023/09/14 08:26:06;;;;;;;8.43;6.90;;;;;;;22.93;74.16;100463.97;5560407;32;33288;-56
2023/09/14 08:29:10;;;;;;;10.27;7.65;;;;;;;22.90;73.66;100459.19;5566680;32;33587;-58
2023/09/14 08:32:13;;;;;;;8.90;7.22;;;;;;;22.85;73.71;100461.47;5562811;32;33648;-57
2023/09/14 08:35:24;;;;;;;8.63;7.47;;;;;;;22.81;74.04;100468.78;5565468;32;33668;-57
2023/09/14 08:38:28;;;;;;;8.82;6.93;;;;;;;22.90;73.57;100464.66;5563742;32;34304;-57
2023/09/14 08:41:38;;;;;;;8.88;7.22;;;;;;;22.94;73.37;100467.50;5558874;32;33536;-57
2023/09/14 08:44:41;;;;;;;14.73;7.07;;;;;;;22.89;73.58;100462.31;5563250;32;33836;-57
2023/09/14 08:47:47;;;;;;;10.73;7.82;;;;;;;22.93;75.20;100458.50;5560668;32;33531;-56
2023/09/14 08:50:52;;;;;;;;;;;;;;;23.08;73.82;100453.28;5553767;32;33697;-57
2023/09/14 08:53:55;;;;;;;8.20;6.55;;;;;;;23.27;73.00;100452.47;5560231;32;35168;-57
2023/09/14 08:57:16;;;;;;;8.73;6.53;;;;;;;23.42;72.29;100457.03;5566644;32;33332;-57
2023/09/14 09:00:19;;;;;;;7.60;6.40;;;;;;;23.48;73.15;100461.06;5555732;32;33552;-57
2023/09/14 09:03:23;;;;;;;11.88;6.85;;;;;;;23.67;71.91;100458.25;5559500;32;33340;-58
2023/09/14 09:06:27;;;;;;;7.62;6.82;;;;;;;23.70;70.82;100455.94;5565185;32;33612;-56
2023/09/14 09:09:29;;;;;;;9.25;6.70;;;;;;;23.70;69.72;100453.22;5562182;32;33742;-57
2023/09/14 09:12:33;;;;;;;10.55;6.95;;;;;;;23.67;68.87;100461.00;5564135;32;33678;-57
2023/09/14 09:15:37;;;;;;;10.18;7.25;;;;;;;23.68;72.31;100461.81;5555434;32;33505;-57
2023/09/14 09:19:03;;;;;;;9.40;7.50;;;;;;;23.62;69.48;100452.28;5554381;32;34350;-57
2023/09/14 09:22:10;;;;;;;8.95;7.00;;;;;;;23.45;70.53;100454.37;5548284;32;33686;-57
2023/09/14 09:25:13;;;;;;;7.80;7.00;;;;;;;23.38;73.22;100462.47;5557493;32;34346;-57
2023/09/14 09:28:16;;;;;;;10.30;7.78;;;;;;;23.32;74.44;100460.37;5567428;32;33206;-56
2023/09/14 09:31:19;;;;;;;10.63;8.30;;;;;;;23.27;76.19;100469.66;5560719;32;33489;-57
2023/09/14 09:34:28;;;;;;;9.98;8.25;;;;;;;23.18;75.64;100463.66;5558590;31;33925;-58
2023/09/14 09:37:35;;;;;;;8.73;7.47;;;;;;;23.25;74.80;100463.78;5566437;32;33658;-56
2023/09/14 09:40:41;;;;;;;9.10;8.13;;;;;;;23.21;77.31;100462.91;5569702;32;33844;-57
2023/09/14 09:43:44;;;;;;;9.20;7.55;;;;;;;23.28;74.16;100460.31;5555251;32;33629;-56
2023/09/14 09:46:47;;;;;;;10.07;7.78;;;;;;;23.43;72.20;100461.34;5564831;32;33783;-57
2023/09/14 09:49:52;;;;;;;11.60;7.85;;;;;;;23.52;70.59;100448.22;5558904;32;33647;-57
2023/09/14 09:52:54;;;;;;;11.70;7.55;;;;;;;23.63;71.48;100451.13;5567635;32;33234;-57
2023/09/14 09:55:57;;;;;;;11.27;7.45;;;;;;;23.71;69.74;100441.91;5568599;32;34075;-57
2023/09/14 09:59:06;;;;;;;11.27;6.87;;;;;;;23.66;67.29;100456.66;5569777;32;33977;-57
2023/09/14 10:02:09;;;;;;;9.00;7.12;;;;;;;23.60;67.64;100449.91;5569379;32;33662;-56
2023/09/14 10:05:13;;;;;;;18.00;6.75;;;;;;;23.69;67.21;100455.16;5569374;32;33285;-58
2023/09/14 10:08:20;;;;;;;16.83;7.47;;;;;;;23.76;69.43;100447.06;5566549;32;34321;-57
2023/09/14 10:11:24;;;;;;;8.45;6.57;;;;;;;23.85;67.76;100447.59;5559860;32;33203;-57
2023/09/14 10:14:28;;;;;;;8.07;7.03;;;;;;;23.91;67.47;100440.66;5569527;32;33821;-57
2023/09/14 10:17:32;;;;;;;8.95;6.47;;;;;;;24.06;67.85;100457.28;5568587;32;33193;-57
2023/09/14 10:20:35;;;;;;;9.60;6.15;;;;;;;24.06;65.69;100449.84;5568438;32;33638;-56
2023/09/14 10:23:39;;;;;;;9.45;5.82;;;;;;;24.05;63.93;100450.22;5565672;32;34323;-57
2023/09/14 10:26:43;;;;;;;10.85;6.00;;;;;;;24.06;63.20;100451.78;5565261;32;34216;-57
2023/09/14 10:29:46;;;;;;;9.07;5.50;;;;;;;24.10;64.34;100452.62;5568135;32;33678;-57
2023/09/14 10:32:52;;;;;;;6.72;5.57;;;;;;;24.11;61.98;100465.19;5569288;32;33710;-57
2023/09/14 10:35:56;;;;;;;7.60;5.60;;;;;;;24.06;62.80;100457.28;5568092;31;34714;-57
2023/09/14 10:39:00;;;;;;;9.43;5.87;;;;;;;24.18;62.87;100448.84;5565196;32;33283;-58
2023/09/14 10:42:03;;;;;;;8.35;6.00;;;;;;;24.36;62.13;100452.59;5563656;32;33548;-57
2023/09/14 10:45:07;;;;;;;10.15;5.55;;;;;;;24.45;62.55;100443.34;5563694;32;33643;-57
2023/09/14 10:48:18;;;;;;;13.50;6.30;;;;;;;24.50;63.10;100448.47;5564205;32;34206;-57
2023/09/14 10:51:22;;;;;;;7.12;5.87;;;;;;;24.48;63.60;100448.09;5560838;32;33762;-57
2023/09/14 10:54:25;;;;;;;8.05;6.30;;;;;;;24.55;62.98;100451.69;5559490;32;34337;-58
2023/09/14 10:57:29;;;;;;;9.20;6.70;;;;;;;24.52;62.29;100446.16;5555861;32;33715;-57
2023/09/14 11:00:34;;;;;;;7.53;6.20;;;;;;;24.37;62.59;100445.97;5559552;32;33691;-58
2023/09/14 11:04:11;;;;;;;7.40;6.60;;;;;;;24.27;65.46;100445.81;5568255;32;33616;-57
2023/09/14 11:07:37;;;;;;;7.22;6.37;;;;;;;24.26;63.31;100453.25;5555733;32;33846;-57
2023/09/14 11:11:00;;;;;;;8.00;6.22;;;;;;;24.24;65.19;100452.03;5554413;32;33894;-57
2023/09/14 11:14:11;;;;;;;9.45;6.32;;;;;;;24.30;65.12;100451.34;5551203;32;34356;-57
2023/09/14 11:17:22;;;;;;;11.35;6.00;;;;;;;24.32;64.64;100456.47;5556975;32;34307;-58
2023/09/14 11:20:26;;;;;;;6.90;5.40;;;;;;;24.40;63.98;100466.34;5565542;32;33721;-58
2023/09/14 11:23:33;;;;;;;7.43;5.57;;;;;;;24.47;63.16;100451.97;5565805;32;33799;-56
2023/09/14 11:26:46;;;;;;;7.57;5.37;;;;;;;24.43;63.89;100459.34;5568564;32;34378;-57
2023/09/14 11:29:52;;;;;;;7.87;6.37;;;;;;;24.40;63.41;100455.38;5566559;32;34361;-57
2023/09/14 11:33:02;;;;;;;8.85;5.43;;;;;;;24.44;61.31;100455.47;5565960;32;33220;-57
2023/09/14 11:36:07;;;;;;;9.73;5.65;;;;;;;24.51;61.72;100445.38;5558580;32;33678;-57
2023/09/14 11:39:14;;;;;;;9.75;5.57;;;;;;;24.63;62.23;100446.28;5563564;32;33303;-57
2023/09/14 11:42:22;;;;;;;8.77;5.22;;;;;;;24.75;60.40;100457.00;5549558;32;34405;-56
2023/09/14 11:45:26;;;;;;;7.07;4.85;;;;;;;24.72;60.39;100455.00;5559087;32;34930;-58
2023/09/14 11:48:34;;;;;;;7.03;5.57;;;;;;;24.78;60.91;100451.56;5560558;32;34301;-57
2023/09/14 11:51:40;;;;;;;5.95;5.22;;;;;;;24.75;63.90;100454.28;5567429;32;33748;-57
2023/09/14 11:54:47;;;;;;;7.78;5.10;;;;;;;24.75;64.64;100457.00;5553859;32;33734;-57
2023/09/14 11:57:50;;;;;;;9.35;4.90;;;;;;;24.67;65.15;100458.88;5549999;32;33746;-59
2023/09/14 12:00:56;;;;;;;7.43;5.43;;;;;;;24.59;65.84;100454.47;5554654;32;33478;-58
2023/09/14 12:03:59;;;;;;;9.77;4.80;;;;;;;24.56;65.29;100463.44;5570784;31;33737;-57
2023/09/14 12:07:03;;;;;;;5.78;4.95;;;;;;;24.58;63.84;100466.59;5549338;32;34525;-57
2023/09/14 12:10:18;;;;;;;6.87;5.10;;;;;;;24.60;64.11;100456.84;5546972;32;34266;-57
2023/09/14 12:13:21;;;;;;;7.40;5.00;;;;;;;24.58;65.14;100463.87;5553252;32;33776;-57
2023/09/14 12:16:27;;;;;;;10.95;5.22;;;;;;;24.58;65.41;100464.66;5561247;32;33300;-57
2023/09/14 12:19:30;;;;;;;7.05;5.30;;;;;;;24.61;63.31;100461.16;5553111;32;33724;-57
2023/09/14 12:22:33;;;;;;;5.93;5.32;;;;;;;24.48;65.56;100461.78;5563310;32;33721;-58
2023/09/14 12:25:38;;;;;;;10.90;5.30;;;;;;;24.40;67.21;100466.34;5551265;32;34537;-57
2023/09/14 12:28:49;;;;;;;6.07;4.30;;;;;;;24.35;67.71;100472.94;5556808;32;33380;-56
2023/09/14 12:31:51;;;;;;;5.40;4.32;;;;;;;24.14;67.96;100480.87;5565189;32;33660;-56
2023/09/14 12:34:54;;;;;;;5.30;4.03;;;;;;;24.11;70.24;100473.41;5569171;31;34383;-58
2023/09/14 12:38:03;;;;;;;6.70;4.20;;;;;;;23.90;70.44;100471.91;5564495;32;33724;-58
2023/09/14 12:41:06;;;;;;;7.28;4.45;;;;;;;23.93;71.36;100473.12;5565089;32;33607;-56
2023/09/14 12:44:09;;;;;;;6.68;3.90;;;;;;;24.04;71.01;100465.06;5559737;32;33657;-57
2023/09/14 12:47:12;;;;;;;7.12;3.80;;;;;;;24.08;71.08;100474.13;5566789;32;33223;-57
2023/09/14 12:50:17;;;;;;;8.07;4.03;;;;;;;24.08;71.32;100476.88;5569078;32;34094;-57
2023/09/14 12:53:20;;;;;;;6.40;4.32;;;;;;;23.92;70.90;100479.75;5568948;32;34372;-57
2023/09/14 12:56:24;;;;;;;8.00;4.05;;;;;;;23.96;71.18;100477.84;5570231;32;34078;-56
2023/09/14 12:59:27;;;;;;;5.60;3.90;;;;;;;23.95;70.42;100480.97;5569740;32;34348;-57
2023/09/14 13:02:33;;;;;;;5.37;3.33;;;;;;;23.99;71.12;100481.81;5570134;32;34273;-57
2023/09/14 13:05:36;;;;;;;6.22;3.60;;;;;;;24.02;71.21;100470.13;5570371;32;34316;-57
2023/09/14 13:08:46;;;;;;;5.32;3.50;;;;;;;24.05;72.29;100477.59;5569264;32;34324;-57
2023/09/14 13:11:51;;;;;;;3.78;3.28;;;;;;;24.05;70.62;100488.56;5569316;32;33570;-56
2023/09/14 13:14:53;;;;;;;13.13;3.65;;;;;;;24.01;69.24;100485.78;5554884;32;33699;-57
2023/09/14 13:18:07;;;;;;;5.53;3.50;;;;;;;24.05;68.95;100499.50;5570041;32;34402;-56
2023/09/14 13:21:09;;;;;;;7.12;3.40;;;;;;;23.83;68.65;100495.66;5567429;32;34279;-57
2023/09/14 13:24:13;;;;;;;5.75;3.05;;;;;;;23.70;70.14;100505.22;5568053;32;34300;-56
2023/09/14 13:27:15;;;;;;;7.35;3.10;;;;;;;23.81;69.32;100501.50;5569649;32;33772;-56
2023/09/14 13:30:18;;;;;;;7.12;3.33;;;;;;;23.80;69.05;100502.63;5562964;32;33680;-56
2023/09/14 13:33:20;;;;;;;6.57;3.28;;;;;;;23.71;69.09;100493.91;5566748;32;33669;-56
2023/09/14 13:36:22;;;;;;;5.22;3.47;;;;;;;23.77;68.08;100495.16;5568855;31;33706;-57
2023/09/14 13:39:25;;;;;;;7.10;3.42;;;;;;;23.62;68.45;100496.06;5566950;32;33772;-57
2023/09/14 13:42:27;;;;;;;5.25;3.20;;;;;;;23.56;68.96;100492.84;5569084;32;33716;-58
2023/09/14 13:45:30;;;;;;;4.93;3.47;;;;;;;23.62;68.70;100496.06;5569608;32;33756;-56
2023/09/14 13:48:33;;;;;;;4.15;3.00;;;;;;;23.64;67.88;100499.22;5569526;32;34375;-57
2023/09/14 13:51:35;;;;;;;6.20;3.28;;;;;;;23.68;67.78;100508.31;5569738;32;34249;-56
2023/09/14 13:54:38;;;;;;;5.55;3.40;;;;;;;23.66;67.86;100505.13;5569779;32;34498;-56
2023/09/14 13:57:40;;;;;;;5.35;3.12;;;;;;;23.60;66.95;100504.63;5569448;32;33625;-57
2023/09/14 14:00:43;;;;;;;11.40;4.15;;;;;;;23.56;66.68;100505.75;5569711;32;33774;-57
2023/09/14 14:03:45;;;;;;;4.85;3.33;;;;;;;23.52;66.73;100502.94;5569729;32;34443;-57
2023/09/14 14:06:48;;;;;;;8.70;3.20;;;;;;;23.52;68.19;100510.38;5569642;32;34381;-56
2023/09/14 14:09:50;;;;;;;9.10;3.78;;;;;;;23.58;67.23;100511.66;5569672;32;33779;-57
2023/09/14 14:12:52;;;;;;;7.25;2.85;;;;;;;23.64;68.36;100526.59;5569574;32;34397;-57
2023/09/14 14:15:55;;;;;;;5.10;3.17;;;;;;;23.65;65.87;100526.22;5569020;32;33781;-56
2023/09/14 14:18:57;;;;;;;6.97;3.30;;;;;;;23.58;65.39;100519.84;5569524;32;33970;-57
2023/09/14 14:22:00;;;;;;;4.97;3.62;;;;;;;23.66;65.99;100516.84;5569793;32;33855;-57
2023/09/14 14:25:03;;;;;;;7.28;4.20;;;;;;;23.55;66.84;100521.38;5569525;32;34452;-57
2023/09/14 14:28:06;;;;;;;5.28;3.60;;;;;;;23.60;67.08;100525.75;5569743;32;33540;-58
2023/09/14 14:31:08;;;;;;;5.55;3.85;;;;;;;23.56;65.63;100524.87;5569589;32;33802;-57
2023/09/14 14:34:14;;;;;;;4.32;3.65;;;;;;;23.60;65.94;100531.22;5564642;32;33611;-57
2023/09/14 14:37:17;;;;;;;6.25;3.55;;;;;;;23.64;66.76;100527.41;5563044;32;33733;-56
2023/09/14 14:40:19;;;;;;;5.93;3.70;;;;;;;23.69;66.35;100529.06;5567483;32;33643;-57
2023/09/14 14:43:43;;;;;;;6.12;3.80;;;;;;;23.65;65.92;100539.13;5549421;32;33745;-57
2023/09/14 14:46:45;;;;;;;6.00;4.22;;;;;;;23.60;66.10;100536.69;5549741;32;33455;-58
2023/09/14 14:49:48;;;;;;;9.70;4.40;;;;;;;23.59;65.80;100559.75;5549548;32;34033;-56
2023/09/14 14:52:50;;;;;;;5.90;4.47;;;;;;;23.57;69.40;100571.03;5549721;32;33651;-57
2023/09/14 14:55:53;;;;;;;8.85;4.93;;;;;;;23.51;69.36;100577.16;5548855;32;33738;-57
2023/09/14 14:58:56;;;;;;;11.50;4.57;;;;;;;23.35;70.36;100569.09;5549328;32;33735;-57
2023/09/14 15:01:58;;;;;;;14.52;5.95;;;;;;;23.34;73.98;100578.41;5549340;32;33964;-57
2023/09/14 15:05:01;;;;;;;12.65;5.57;;;;;;;23.34;71.83;100584.69;5549884;32;34170;-56
2023/09/14 15:25:07;;;;;;;6.97;4.95;;;;;;;22.84;80.89;100602.78;5602105;31;211800;-57
2023/09/14 15:28:10;;;;;;;10.57;5.60;;;;;;;22.84;80.89;100602.78;5583555;32;33929;-57
2023/09/14 15:31:13;;;;;;;8.63;5.70;;;;;;;22.33;83.32;100610.22;5584058;31;34252;-56
2023/09/14 15:34:16;;;;;;;7.20;6.07;;;;;;;22.18;89.29;100615.31;5583985;31;33702;-56
2023/09/14 15:37:18;;;;;;;7.47;6.20;;;;;;;21.97;93.28;100621.00;5564503;32;34207;-57
2023/09/14 15:40:20;;;;;;;8.73;6.07;;;;;;;21.86;93.72;100614.50;5564340;32;33682;-57
